Terminal Aerodrome Forecast
Issued by NWS

Home | Current Version | Previous Version | Text Only | Print | Product List | Glossary On
Versions: 1 2 3 4 5 6 7 8 9 10 11 12 13 14 15 16 17 18 19 20 21 22 23 24 25 26 27 28 29 30 31 32 33 34 35 36
000
FTUS43 KGLD 181958 AAA
TAFMCK
TAF AMD
KMCK 181958Z 1820/1918 13008KT 2SM BR OVC006
     FM182100 13009KT P6SM BKN010
      TEMPO 1821/1824 SCT010
     FM190400 21010KT P6SM FEW010
     FM190700 VRB05KT 1SM BR SKC
     FM191500 21010KT P6SM SKC=

USA.gov is the U.S. government's official web portal to all federal, state and local government web resources and services.